Time;durP1;ratioP1;P1;durP2;ratioP2;P2;SDS_P1;SDS_P2;PMS_P1;PMS_P2;Temp;Humidity;BMP_temperature;BMP_pressure;BME280_temperature;BME280_humidity;BME280_pressure;Samples;Min_cycle;Max_cycle;Signal;HPM_P1;HPM_P2
2021/12/05 00:17:10;;;;;;;20.48;11.18;;;9.20;99.90;;;;;;5272488;28;20039;-74
2021/12/05 00:25:23;;;;;;;11.02;5.20;;;8.80;99.90;;;;;;5263834;28;20032;-74
2021/12/05 00:28:27;;;;;;;6.78;3.00;;;9.10;99.90;;;;;;5272249;28;20112;-73
2021/12/05 00:39:25;;;;;;;11.02;3.20;;;9.20;99.90;;;;;;5271811;28;20042;-74
2021/12/05 01:11:45;;;;;;;13.23;5.97;;;9.30;99.90;;;;;;5271795;28;20079;-73
2021/12/05 01:16:50;;;;;;;16.30;5.47;;;9.30;99.90;;;;;;5271052;28;20028;-73
2021/12/05 01:19:22;;;;;;;8.35;4.57;;;9.10;99.90;;;;;;5252784;28;20115;-74
2021/12/05 01:21:57;;;;;;;8.73;4.63;;;9.00;99.90;;;;;;5271053;28;20440;-73
2021/12/05 01:35:28;;;;;;;13.68;5.28;;;9.20;99.90;;;;;;5270626;28;20058;-74
2021/12/05 01:57:46;;;;;;;16.83;8.85;;;9.30;99.90;;;;;;5270294;28;20023;-74
2021/12/05 02:09:08;;;;;;;13.88;6.18;;;9.20;99.90;;;;;;5270502;28;20092;-73
2021/12/05 02:35:12;;;;;;;26.50;6.85;;;9.40;99.90;;;;;;5269707;28;20081;-74
2021/12/05 02:40:03;;;;;;;21.40;8.77;;;9.50;99.90;;;;;;5269750;28;20020;-73
2021/12/05 02:42:47;;;;;;;19.98;8.10;;;9.50;99.90;;;;;;5269357;28;20040;-73
2021/12/05 02:45:18;;;;;;;17.30;7.63;;;9.50;99.90;;;;;;5269129;28;20063;-73
2021/12/05 02:47:51;;;;;;;20.60;7.72;;;9.50;99.90;;;;;;5269690;28;20051;-73
2021/12/05 02:50:29;;;;;;;23.08;9.13;;;9.50;99.90;;;;;;5251214;28;20478;-73
2021/12/05 02:53:12;;;;;;;18.65;8.57;;;9.50;99.90;;;;;;5269080;28;20020;-73
2021/12/05 02:55:44;;;;;;;19.17;8.55;;;9.50;99.90;;;;;;5270065;28;20028;-73
2021/12/05 03:03:32;;;;;;;23.38;10.60;;;9.40;99.90;;;;;;5269108;28;20549;-73
2021/12/05 03:06:22;;;;;;;26.60;10.68;;;9.50;99.90;;;;;;5269028;28;20067;-73
2021/12/05 03:08:57;;;;;;;25.95;10.77;;;9.50;99.90;;;;;;5269213;28;20482;-73
2021/12/05 03:11:29;;;;;;;25.40;10.02;;;9.50;99.90;;;;;;5269106;28;20376;-73
2021/12/05 03:14:00;;;;;;;28.92;10.07;;;9.40;99.90;;;;;;5268853;28;20036;-73
2021/12/05 03:16:34;;;;;;;23.58;8.85;;;9.40;99.90;;;;;;5269196;28;20026;-73
2021/12/05 03:19:08;;;;;;;18.30;10.18;;;9.50;99.90;;;;;;5269709;28;20050;-73
2021/12/05 03:21:40;;;;;;;20.95;9.32;;;9.50;99.90;;;;;;5269002;28;20028;-73
2021/12/05 03:24:13;;;;;;;18.27;9.05;;;9.50;99.90;;;;;;5268868;28;20028;-73
2021/12/05 03:26:46;;;;;;;20.88;10.10;;;9.60;99.90;;;;;;5269022;28;20108;-73
2021/12/05 03:29:20;;;;;;;21.13;9.85;;;9.50;99.90;;;;;;5269120;28;20028;-74
2021/12/05 03:31:52;;;;;;;18.20;8.63;;;9.50;99.90;;;;;;5268882;28;20042;-73
2021/12/05 03:34:24;;;;;;;22.85;8.98;;;9.50;99.90;;;;;;5268927;28;20024;-74
2021/12/05 03:36:57;;;;;;;25.70;9.48;;;9.40;99.90;;;;;;5269068;28;20093;-73
2021/12/05 03:39:28;;;;;;;25.98;9.30;;;9.30;99.90;;;;;;5250789;28;20574;-73
2021/12/05 03:41:59;;;;;;;18.17;8.73;;;9.40;99.90;;;;;;5268750;28;20031;-74
2021/12/05 03:44:33;;;;;;;20.13;8.60;;;9.40;99.90;;;;;;5250810;28;20024;-73
2021/12/05 03:47:07;;;;;;;23.05;8.48;;;9.50;99.90;;;;;;5268858;28;20040;-74
2021/12/05 03:49:39;;;;;;;22.40;10.32;;;9.40;99.90;;;;;;5269187;28;20013;-73
2021/12/05 03:52:13;;;;;;;27.48;12.43;;;9.50;99.90;;;;;;5268622;28;20491;-74
2021/12/05 03:54:45;;;;;;;26.52;11.57;;;9.40;99.90;;;;;;5268336;28;20036;-73
2021/12/05 03:57:16;;;;;;;24.88;10.18;;;9.50;99.90;;;;;;5271787;28;20095;-73
2021/12/05 03:59:47;;;;;;;22.92;9.25;;;9.40;99.90;;;;;;5272863;28;20081;-72
2021/12/05 04:02:18;;;;;;;24.75;11.10;;;9.50;99.90;;;;;;5272387;28;20413;-73
2021/12/05 04:04:50;;;;;;;23.30;11.18;;;9.60;99.90;;;;;;5272779;28;20358;-74
2021/12/05 04:07:21;;;;;;;22.70;10.80;;;9.60;99.90;;;;;;5272650;28;20020;-74
2021/12/05 04:09:52;;;;;;;19.65;9.30;;;9.60;99.90;;;;;;5272585;28;20028;-74
2021/12/05 04:12:23;;;;;;;30.75;10.23;;;9.50;99.90;;;;;;5272016;28;20074;-74
2021/12/05 04:14:55;;;;;;;20.95;10.48;;;9.30;99.90;;;;;;5254227;28;20391;-74
2021/12/05 04:17:26;;;;;;;23.95;10.50;;;9.40;99.90;;;;;;5272116;28;20020;-73
2021/12/05 04:19:57;;;;;;;29.15;9.93;;;9.50;99.90;;;;;;5272117;28;20031;-74
2021/12/05 04:22:28;;;;;;;17.33;9.27;;;9.60;99.90;;;;;;5272095;28;20027;-73
2021/12/05 04:25:02;;;;;;;24.63;10.40;;;9.60;99.90;;;;;;5272008;28;20391;-73
2021/12/05 04:27:32;;;;;;;25.38;12.35;;;9.60;99.90;;;;;;5271965;28;20032;-75
2021/12/05 04:30:05;;;;;;;28.80;11.05;;;9.50;99.90;;;;;;5272058;28;20039;-73
2021/12/05 04:32:36;;;;;;;22.05;11.63;;;9.50;99.90;;;;;;5272016;28;20064;-74
2021/12/05 04:35:08;;;;;;;29.85;11.45;;;9.50;99.90;;;;;;5271729;28;20415;-73
2021/12/05 04:37:39;;;;;;;27.33;11.57;;;9.50;99.90;;;;;;5271800;28;20020;-74
2021/12/05 04:40:11;;;;;;;19.92;9.70;;;9.50;99.90;;;;;;5272409;28;20032;-74
2021/12/05 04:42:42;;;;;;;24.05;10.35;;;9.70;99.90;;;;;;5271655;28;20498;-74
2021/12/05 04:45:20;;;;;;;20.25;9.35;;;9.70;99.90;;;;;;5271646;28;20074;-74
2021/12/05 04:47:52;;;;;;;19.10;9.85;;;9.70;99.90;;;;;;5253543;28;20383;-74
2021/12/05 04:50:24;;;;;;;15.88;8.20;;;9.80;99.90;;;;;;5271636;28;20021;-74
2021/12/05 04:52:56;;;;;;;21.73;7.85;;;9.80;99.90;;;;;;5271427;28;20032;-74
2021/12/05 04:55:27;;;;;;;15.50;7.88;;;9.80;99.90;;;;;;5271546;28;20024;-73
2021/12/05 04:57:58;;;;;;;15.95;9.35;;;9.80;99.90;;;;;;5271493;28;20020;-74
2021/12/05 05:00:32;;;;;;;27.05;13.23;;;9.70;99.90;;;;;;5271326;28;20039;-73
2021/12/05 05:03:04;;;;;;;28.83;13.45;;;9.80;99.90;;;;;;5271530;28;20040;-74
2021/12/05 05:05:37;;;;;;;25.35;13.45;;;9.80;99.90;;;;;;5271287;28;20024;-74
2021/12/05 05:08:07;;;;;;;25.48;13.48;;;9.70;99.90;;;;;;5252933;28;20375;-73
2021/12/05 05:10:41;;;;;;;41.63;14.80;;;9.70;99.90;;;;;;5253076;28;20020;-74
2021/12/05 05:13:12;;;;;;;25.83;15.88;;;9.60;99.90;;;;;;5271216;28;20060;-74
2021/12/05 05:15:44;;;;;;;27.23;17.95;;;9.70;99.90;;;;;;5271099;28;20473;-73
2021/12/05 05:18:14;;;;;;;31.77;20.05;;;9.70;99.90;;;;;;5270983;28;20395;-74
2021/12/05 05:21:01;;;;;;;34.60;19.52;;;9.60;99.90;;;;;;5271303;28;20031;-75
2021/12/05 05:48:57;;;;;;;53.15;29.20;;;9.90;99.90;;;;;;5185648;28;20029;-74
2021/12/05 05:51:27;;;;;;;50.83;29.60;;;9.90;99.90;;;;;;5185905;28;20038;-74
2021/12/05 05:53:58;;;;;;;64.95;38.25;;;9.80;99.90;;;;;;5238915;28;20387;-76
2021/12/05 05:56:31;;;;;;;57.58;35.10;;;9.80;99.90;;;;;;5252086;28;20028;-75
2021/12/05 05:59:17;;;;;;;59.80;34.88;;;9.80;99.90;;;;;;5270216;28;20376;-74
2021/12/05 06:04:19;;;;;;;47.97;26.27;;;9.90;99.90;;;;;;5269978;28;20059;-74
2021/12/05 06:06:50;;;;;;;41.25;20.17;;;9.80;99.90;;;;;;5251845;28;20510;-74
2021/12/05 06:09:21;;;;;;;35.28;20.45;;;9.70;99.90;;;;;;5270064;28;20016;-74
2021/12/05 06:11:52;;;;;;;37.45;18.00;;;9.60;99.90;;;;;;5269828;28;20689;-73
2021/12/05 06:14:24;;;;;;;28.25;14.60;;;9.80;99.90;;;;;;5269646;28;20043;-74
2021/12/05 06:16:55;;;;;;;27.00;11.02;;;9.80;99.90;;;;;;5269848;28;20483;-74
2021/12/05 06:19:26;;;;;;;23.33;11.73;;;9.80;99.90;;;;;;5269370;28;20062;-75
2021/12/05 06:21:57;;;;;;;17.42;10.73;;;9.80;99.90;;;;;;5269664;28;20481;-75
2021/12/05 06:24:28;;;;;;;22.65;10.68;;;9.80;99.90;;;;;;5269766;28;20404;-74
2021/12/05 06:27:01;;;;;;;17.83;9.02;;;9.70;99.90;;;;;;5269568;28;20020;-75
2021/12/05 06:29:37;;;;;;;17.05;9.65;;;9.70;99.90;;;;;;5269548;28;20040;-75
2021/12/05 06:32:35;;;;;;;22.05;10.23;;;9.70;99.90;;;;;;5269594;28;20157;-74
2021/12/05 06:38:09;;;;;;;30.63;15.48;;;9.90;99.90;;;;;;5270085;28;20059;-74
2021/12/05 06:41:01;;;;;;;32.63;19.88;;;9.90;99.90;;;;;;5269533;28;20059;-72
2021/12/05 06:46:32;;;;;;;43.70;20.13;;;9.90;99.90;;;;;;5269372;28;20036;-74
2021/12/05 06:49:03;;;;;;;29.42;19.25;;;10.00;99.90;;;;;;5269949;28;20024;-75
2021/12/05 06:51:34;;;;;;;37.58;18.73;;;10.00;99.90;;;;;;5269392;28;20019;-75
2021/12/05 06:54:05;;;;;;;29.10;19.70;;;10.20;99.90;;;;;;5269258;28;20040;-74
2021/12/05 06:56:36;;;;;;;27.80;17.45;;;10.10;99.90;;;;;;5269327;28;20016;-75
2021/12/05 06:59:07;;;;;;;31.58;18.98;;;10.20;99.90;;;;;;5251216;28;20070;-74
2021/12/05 07:01:38;;;;;;;31.52;19.10;;;10.20;99.90;;;;;;5269393;28;20016;-74
2021/12/05 07:04:26;;;;;;;30.88;18.17;;;10.20;99.90;;;;;;5269077;28;20066;-75
2021/12/05 07:06:58;;;;;;;27.60;17.15;;;10.30;99.90;;;;;;5269313;28;20027;-76
2021/12/05 07:09:29;;;;;;;38.17;18.35;;;10.30;99.90;;;;;;5269209;28;20060;-74
2021/12/05 07:25:33;;;;;;;96.53;54.92;;;10.50;99.90;;;;;;5269394;28;20027;-74
2021/12/05 07:42:18;;;;;;;32.00;17.83;;;10.40;99.90;;;;;;5272765;28;20149;-75
2021/12/05 07:44:56;;;;;;;35.03;19.85;;;10.50;99.90;;;;;;5272441;28;20047;-75
2021/12/05 07:47:30;;;;;;;41.20;19.58;;;10.60;99.90;;;;;;5272247;28;20039;-73
2021/12/05 07:50:06;;;;;;;39.72;19.67;;;10.70;99.90;;;;;;5272242;28;20012;-76
2021/12/05 07:52:42;;;;;;;24.13;13.55;;;10.90;99.90;;;;;;5272140;28;20012;-73
2021/12/05 07:55:24;;;;;;;30.10;14.30;;;10.80;99.90;;;;;;5272275;28;20028;-76
2021/12/05 08:01:01;;;;;;;25.90;13.63;;;10.80;99.90;;;;;;5272353;28;20032;-76
2021/12/05 08:14:26;;;;;;;26.52;11.75;;;10.80;99.90;;;;;;5272097;28;20093;-74
2021/12/05 08:15:10;;;;;;;27.30;14.63;;;11.10;99.90;;;;;;5272043;28;20108;-75
2021/12/05 08:17:49;;;;;;;29.40;14.15;;;11.10;99.90;;;;;;5271798;28;20055;-74
2021/12/05 08:20:34;;;;;;;27.70;14.13;;;11.00;99.90;;;;;;5271637;28;20028;-73
2021/12/05 08:23:07;;;;;;;25.67;13.85;;;11.20;99.90;;;;;;5271510;28;20039;-73
2021/12/05 08:25:41;;;;;;;20.27;9.52;;;11.00;99.90;;;;;;5271699;28;20036;-75
2021/12/05 08:29:17;;;;;;;26.60;8.65;;;11.00;99.90;;;;;;5271533;28;20031;-75
2021/12/05 08:31:36;;;;;;;30.02;15.63;;;11.20;99.90;;;;;;5257766;28;20028;-75
2021/12/05 08:40:08;;;;;;;24.45;8.65;;;11.10;99.90;;;;;;5271372;28;20424;-75
2021/12/05 09:24:34;;;;;;;20.80;14.45;;;11.60;99.90;;;;;;5270425;28;20387;-75
2021/12/05 10:09:06;;;;;;;23.88;17.42;;;11.70;99.90;;;;;;5269945;28;20069;-75
2021/12/05 10:11:46;;;;;;;24.20;16.02;;;11.80;99.90;;;;;;5269998;28;20032;-75
2021/12/05 10:36:12;;;;;;;20.40;12.88;;;12.30;99.90;;;;;;5263148;28;20023;-73
2021/12/05 10:38:52;;;;;;;18.95;14.80;;;12.30;99.90;;;;;;5255552;28;20464;-75
2021/12/05 10:44:10;;;;;;;22.52;13.65;;;12.30;99.90;;;;;;5262707;28;20035;-75
2021/12/05 10:46:46;;;;;;;21.17;14.52;;;12.30;99.90;;;;;;5256988;28;20050;-77
2021/12/05 10:49:18;;;;;;;18.23;11.43;;;12.40;99.90;;;;;;5253470;28;20052;-74
2021/12/05 10:51:55;;;;;;;19.58;11.45;;;12.40;99.90;;;;;;5260924;28;20042;-75
2021/12/05 10:54:28;;;;;;;18.75;12.00;;;12.40;99.90;;;;;;5258631;28;20028;-75
2021/12/05 10:57:02;;;;;;;20.60;12.00;;;12.40;99.90;;;;;;5248160;28;20103;-75
2021/12/05 10:59:38;;;;;;;18.98;11.02;;;12.50;99.90;;;;;;5252530;28;20025;-75
2021/12/05 11:02:20;;;;;;;18.00;12.35;;;12.70;99.90;;;;;;5255187;28;20032;-76
2021/12/05 11:04:50;;;;;;;21.67;14.13;;;12.60;99.90;;;;;;5259964;28;20119;-75
2021/12/05 11:07:23;;;;;;;21.00;13.68;;;12.60;99.90;;;;;;5263859;28;20127;-75
2021/12/05 11:09:59;;;;;;;21.20;13.20;;;12.50;99.90;;;;;;5255390;28;20025;-74
2021/12/05 11:12:35;;;;;;;19.23;11.93;;;12.60;99.90;;;;;;5257917;28;20036;-74
2021/12/05 11:15:11;;;;;;;19.88;12.75;;;12.50;99.90;;;;;;5264716;28;20032;-74
2021/12/05 11:17:46;;;;;;;18.40;11.85;;;12.60;99.90;;;;;;5259022;28;20020;-77
2021/12/05 11:20:32;;;;;;;18.15;13.40;;;12.60;99.90;;;;;;5250173;28;20548;-73
2021/12/05 11:23:03;;;;;;;21.05;12.75;;;12.70;99.90;;;;;;5257504;28;20069;-75
2021/12/05 11:25:40;;;;;;;20.73;12.98;;;12.70;99.90;;;;;;5257858;28;20071;-75
2021/12/05 11:28:16;;;;;;;19.35;12.32;;;12.80;99.90;;;;;;5250878;28;20028;-73
2021/12/05 11:30:47;;;;;;;19.13;13.02;;;12.70;99.90;;;;;;5258536;28;20416;-74
2021/12/05 11:33:21;;;;;;;18.83;12.35;;;12.80;99.90;;;;;;5253432;28;20103;-74
2021/12/05 11:35:57;;;;;;;18.15;11.82;;;12.90;99.90;;;;;;5256335;28;20020;-77
2021/12/05 11:38:30;;;;;;;19.60;12.52;;;12.90;99.90;;;;;;5257038;28;20032;-75
2021/12/05 11:41:14;;;;;;;20.27;12.93;;;12.90;99.90;;;;;;5244707;28;20708;-74
2021/12/05 11:43:47;;;;;;;19.58;12.35;;;13.00;99.90;;;;;;5253620;28;20029;-75
2021/12/05 11:46:20;;;;;;;20.88;13.32;;;13.00;99.90;;;;;;5249766;28;20428;-76
2021/12/05 11:48:53;;;;;;;18.65;11.82;;;12.90;99.90;;;;;;5261446;28;20017;-74
2021/12/05 11:51:28;;;;;;;19.80;13.80;;;13.00;99.90;;;;;;5242395;28;20016;-73
2021/12/05 11:54:25;;;;;;;18.23;12.73;;;13.10;99.90;;;;;;5258907;28;20036;-76
2021/12/05 11:57:13;;;;;;;17.60;11.68;;;13.10;99.90;;;;;;5253561;28;20028;-73
2021/12/05 12:00:01;;;;;;;19.05;13.20;;;13.00;99.90;;;;;;5252022;28;20020;-74
2021/12/05 12:02:36;;;;;;;19.52;12.43;;;13.10;99.90;;;;;;5238464;28;20043;-75
2021/12/05 12:05:21;;;;;;;19.90;12.10;;;13.20;99.90;;;;;;5231189;28;20527;-75
2021/12/05 12:08:09;;;;;;;21.83;12.20;;;13.20;99.90;;;;;;5258546;28;20103;-76
2021/12/05 12:10:44;;;;;;;16.90;12.30;;;13.20;99.90;;;;;;5249614;28;20033;-76
2021/12/05 12:13:20;;;;;;;18.55;13.13;;;13.30;99.90;;;;;;5253780;28;20039;-74
2021/12/05 12:15:59;;;;;;;19.90;13.40;;;13.30;99.90;;;;;;5257803;28;20085;-76
2021/12/05 12:18:33;;;;;;;20.48;13.55;;;13.50;99.90;;;;;;5257940;28;20052;-75
2021/12/05 12:21:16;;;;;;;20.30;12.70;;;13.40;99.90;;;;;;5254983;28;20024;-76
2021/12/05 12:23:51;;;;;;;18.65;13.02;;;13.50;99.90;;;;;;5261709;28;20109;-73
2021/12/05 12:26:23;;;;;;;20.27;11.70;;;13.60;99.90;;;;;;5259450;28;20027;-73
2021/12/05 12:28:57;;;;;;;18.42;11.63;;;13.50;99.90;;;;;;5253286;28;20433;-74
2021/12/05 12:31:35;;;;;;;17.42;11.52;;;13.60;99.90;;;;;;5262077;28;20050;-74
2021/12/05 12:34:10;;;;;;;17.17;10.73;;;13.60;99.90;;;;;;5261948;28;20055;-76
2021/12/05 12:36:46;;;;;;;13.65;10.45;;;13.70;99.90;;;;;;5260132;28;20025;-75
2021/12/05 12:39:17;;;;;;;14.63;10.43;;;13.70;99.90;;;;;;5258466;28;20032;-76
2021/12/05 12:42:02;;;;;;;15.32;10.25;;;13.70;99.90;;;;;;5255913;28;20028;-75
2021/12/05 12:44:33;;;;;;;15.82;10.10;;;13.60;99.90;;;;;;5265386;28;20043;-74
2021/12/05 12:47:06;;;;;;;12.73;9.43;;;13.70;99.90;;;;;;5264134;28;20025;-75
2021/12/05 12:49:39;;;;;;;17.10;9.50;;;13.70;99.90;;;;;;5259276;28;20025;-74
2021/12/05 12:52:18;;;;;;;14.35;9.00;;;13.70;99.90;;;;;;5260605;28;20021;-74
2021/12/05 12:54:57;;;;;;;17.23;9.30;;;13.70;99.90;;;;;;5255195;28;20032;-75
2021/12/05 12:57:33;;;;;;;12.18;8.88;;;13.60;99.90;;;;;;5252733;28;20028;-74
2021/12/05 13:00:12;;;;;;;16.60;8.93;;;13.70;99.90;;;;;;5249767;28;20096;-74
2021/12/05 13:11:24;;;;;;;14.32;8.75;;;13.70;99.90;;;;;;5254341;28;20086;-73
2021/12/05 13:14:05;;;;;;;12.57;8.90;;;13.70;99.90;;;;;;5253888;28;20036;-73
2021/12/05 13:16:37;;;;;;;13.00;9.10;;;13.70;99.90;;;;;;5263866;28;20413;-74
2021/12/05 13:19:12;;;;;;;12.27;9.23;;;13.70;99.90;;;;;;5258275;28;20023;-73
2021/12/05 13:21:47;;;;;;;14.98;9.82;;;13.60;99.90;;;;;;5257220;28;20042;-73
2021/12/05 13:24:44;;;;;;;17.58;10.73;;;13.60;99.90;;;;;;5264354;28;20031;-73
2021/12/05 13:27:29;;;;;;;13.45;9.20;;;13.60;99.90;;;;;;5256414;28;20062;-73
2021/12/05 13:30:00;;;;;;;14.82;10.27;;;13.60;99.90;;;;;;5266042;28;20074;-74
2021/12/05 13:32:33;;;;;;;16.27;9.98;;;13.70;99.90;;;;;;5260874;28;20421;-74
2021/12/05 13:35:10;;;;;;;23.83;14.40;;;13.70;99.90;;;;;;5262021;28;20025;-73
2021/12/05 13:37:47;;;;;;;24.60;14.75;;;13.60;99.90;;;;;;5240307;28;20056;-74
2021/12/05 13:40:18;;;;;;;14.93;9.63;;;13.70;99.90;;;;;;5259058;28;20012;-73
2021/12/05 13:42:56;;;;;;;15.80;10.13;;;13.70;99.90;;;;;;5258120;28;20510;-74
2021/12/05 13:45:27;;;;;;;14.40;9.57;;;13.60;99.90;;;;;;5239062;28;20395;-74
2021/12/05 13:48:02;;;;;;;18.88;12.30;;;13.70;99.90;;;;;;5235049;28;20035;-73
2021/12/05 13:50:57;;;;;;;19.67;13.30;;;13.50;99.90;;;;;;5256738;28;20131;-74
2021/12/05 13:53:35;;;;;;;15.25;11.68;;;13.50;99.90;;;;;;5260299;28;20479;-73
2021/12/05 13:56:12;;;;;;;19.58;11.70;;;13.40;99.90;;;;;;5258468;28;20096;-73
2021/12/05 13:58:46;;;;;;;20.98;11.98;;;13.20;99.90;;;;;;5257017;28;20074;-74
2021/12/05 14:01:21;;;;;;;339.27;212.85;;;12.90;99.90;;;;;;5262151;28;20105;-74
2021/12/05 14:04:07;;;;;;;38.03;24.40;;;12.90;99.90;;;;;;5257623;28;20098;-74
2021/12/05 14:06:53;;;;;;;12.85;8.75;;;12.70;99.90;;;;;;5258820;28;20035;-74
2021/12/05 14:09:28;;;;;;;18.15;12.40;;;13.20;99.90;;;;;;5251926;28;20021;-73
2021/12/05 14:12:03;;;;;;;28.80;13.48;;;12.60;99.90;;;;;;5257999;28;20027;-74
2021/12/05 14:14:46;;;;;;;19.77;9.63;;;12.40;99.90;;;;;;5255808;28;20037;-75
2021/12/05 14:17:24;;;;;;;17.77;11.23;;;12.50;99.90;;;;;;5258329;28;20469;-74
2021/12/05 14:20:17;;;;;;;20.30;9.40;;;12.20;99.90;;;;;;5264336;28;20028;-74
2021/12/05 14:22:49;;;;;;;64.60;49.47;;;12.00;99.90;;;;;;5261413;28;20028;-74
2021/12/05 14:25:26;;;;;;;14.40;11.68;;;11.90;99.90;;;;;;5256961;28;20032;-74
2021/12/05 14:27:59;;;;;;;16.75;11.02;;;11.60;99.90;;;;;;5255706;28;20020;-75
2021/12/05 14:30:34;;;;;;;26.92;15.35;;;11.60;99.90;;;;;;5254967;28;20034;-75
2021/12/05 14:33:06;;;;;;;22.90;13.35;;;11.60;99.90;;;;;;5248786;28;20065;-72
2021/12/05 14:35:40;;;;;;;20.35;11.98;;;11.30;99.90;;;;;;5257295;28;20110;-75
2021/12/05 14:38:10;;;;;;;18.77;10.95;;;11.30;99.90;;;;;;5252018;28;20491;-74
2021/12/05 14:40:43;;;;;;;21.13;13.18;;;11.30;99.90;;;;;;5251788;28;20028;-75
2021/12/05 14:43:19;;;;;;;24.30;11.73;;;11.20;99.90;;;;;;5256542;28;20031;-73
2021/12/05 14:45:51;;;;;;;49.67;41.50;;;10.80;99.90;;;;;;5258322;28;20078;-74
2021/12/05 14:48:21;;;;;;;26.83;11.93;;;11.00;99.90;;;;;;5256912;28;20031;-75
2021/12/05 14:50:53;;;;;;;20.90;13.10;;;10.90;99.90;;;;;;5243866;28;20558;-74
2021/12/05 14:53:24;;;;;;;18.40;11.52;;;10.80;99.90;;;;;;5258095;28;20488;-73
2021/12/05 14:55:58;;;;;;;22.05;12.00;;;10.70;99.90;;;;;;5257784;28;20469;-73
2021/12/05 14:58:30;;;;;;;18.25;11.93;;;10.50;99.90;;;;;;5254058;28;20509;-73
2021/12/05 15:01:04;;;;;;;32.33;14.90;;;10.40;99.90;;;;;;5256363;28;20475;-72
2021/12/05 15:03:35;;;;;;;77.57;45.65;;;10.70;99.90;;;;;;5263857;28;20074;-73
2021/12/05 15:06:07;;;;;;;46.63;27.98;;;10.60;99.90;;;;;;5262347;28;20089;-74
2021/12/05 15:08:38;;;;;;;38.40;19.63;;;10.70;99.90;;;;;;5262425;28;20026;-73
2021/12/05 15:11:10;;;;;;;41.42;20.40;;;10.80;99.90;;;;;;5255271;28;20024;-74
2021/12/05 15:13:40;;;;;;;36.53;20.17;;;11.10;99.90;;;;;;5255295;28;20474;-74
2021/12/05 15:16:11;;;;;;;45.22;24.27;;;11.20;99.90;;;;;;5264639;28;20028;-73
2021/12/05 15:18:44;;;;;;;40.47;22.48;;;11.30;99.90;;;;;;5268521;28;20055;-72
2021/12/05 15:21:14;;;;;;;30.95;19.10;;;11.80;99.90;;;;;;5268893;28;20063;-73
2021/12/05 15:23:45;;;;;;;35.30;19.58;;;11.40;99.90;;;;;;5268986;28;20511;-74
2021/12/05 15:26:16;;;;;;;35.15;21.83;;;11.20;99.90;;;;;;5268997;28;20016;-74
2021/12/05 15:28:47;;;;;;;56.45;35.00;;;11.30;99.90;;;;;;5268945;28;20119;-75
2021/12/05 15:31:18;;;;;;;51.80;33.42;;;11.30;99.90;;;;;;5268990;28;20020;-75
2021/12/05 15:33:51;;;;;;;38.60;22.08;;;11.40;99.90;;;;;;5268904;28;20051;-75
2021/12/05 15:36:30;;;;;;;45.95;22.48;;;11.40;99.90;;;;;;5268867;28;20047;-72
2021/12/05 15:39:21;;;;;;;36.55;21.73;;;11.60;99.90;;;;;;5268817;28;20054;-74
2021/12/05 15:41:55;;;;;;;42.05;23.00;;;11.70;99.90;;;;;;5268071;28;20105;-74
2021/12/05 15:44:39;;;;;;;40.83;21.02;;;11.60;99.90;;;;;;5268644;28;20085;-74
2021/12/05 15:47:19;;;;;;;91.82;55.72;;;11.40;99.90;;;;;;5268843;28;20032;-75
2021/12/05 15:50:02;;;;;;;44.78;23.42;;;11.40;99.90;;;;;;5268635;28;20036;-74
2021/12/05 15:52:40;;;;;;;43.72;20.95;;;11.10;99.90;;;;;;5256970;28;20162;-74
2021/12/05 15:55:13;;;;;;;37.58;20.42;;;10.90;99.90;;;;;;5263726;28;20066;-75
2021/12/05 15:57:59;;;;;;;45.22;23.27;;;10.80;99.90;;;;;;5251728;28;20031;-74
2021/12/05 16:00:38;;;;;;;40.78;23.08;;;10.70;99.90;;;;;;5257860;28;20035;-75
2021/12/05 16:03:13;;;;;;;36.95;19.67;;;10.60;99.90;;;;;;5272373;28;20044;-74
2021/12/05 16:05:46;;;;;;;41.92;19.90;;;10.40;99.90;;;;;;5244915;28;20078;-74
2021/12/05 16:08:17;;;;;;;44.55;23.13;;;10.40;99.90;;;;;;5251696;28;20337;-74
2021/12/05 16:10:57;;;;;;;50.83;19.58;;;10.50;99.90;;;;;;5251399;28;20047;-75
2021/12/05 16:13:38;;;;;;;49.10;23.73;;;10.50;99.90;;;;;;5233268;28;20041;-74
2021/12/05 16:16:18;;;;;;;41.22;22.52;;;10.70;99.90;;;;;;5251769;28;20048;-74
2021/12/05 16:18:52;;;;;;;42.55;22.58;;;10.80;99.90;;;;;;5251120;28;20028;-75
2021/12/05 16:21:27;;;;;;;42.80;22.35;;;10.70;99.90;;;;;;5251249;28;20024;-74
2021/12/05 16:24:07;;;;;;;38.65;22.05;;;10.70;99.90;;;;;;5251124;28;20029;-73
2021/12/05 16:26:38;;;;;;;43.80;22.27;;;10.60;99.90;;;;;;5262804;28;20024;-75
2021/12/05 16:29:24;;;;;;;38.35;21.85;;;10.60;99.90;;;;;;5271848;28;20391;-74
2021/12/05 16:31:58;;;;;;;41.58;21.52;;;10.70;99.90;;;;;;5271707;28;20016;-75
2021/12/05 16:34:32;;;;;;;40.20;19.90;;;10.70;99.90;;;;;;5263215;28;20627;-75
2021/12/05 16:37:07;;;;;;;57.55;27.65;;;10.70;99.90;;;;;;5253564;28;20016;-76
2021/12/05 16:39:48;;;;;;;48.72;23.88;;;10.50;99.90;;;;;;5272113;28;20030;-74
2021/12/05 16:42:22;;;;;;;48.92;23.77;;;10.50;99.90;;;;;;5270027;28;20103;-74
2021/12/05 16:44:59;;;;;;;51.95;26.10;;;10.60;99.90;;;;;;5271651;28;20713;-74
2021/12/05 16:47:32;;;;;;;47.97;24.85;;;10.70;99.90;;;;;;5260755;28;20044;-73
2021/12/05 16:50:07;;;;;;;56.42;27.15;;;10.60;99.90;;;;;;5249931;28;20214;-73
2021/12/05 16:52:44;;;;;;;55.70;27.13;;;10.60;99.90;;;;;;5249921;28;20032;-73
2021/12/05 16:55:26;;;;;;;55.88;27.10;;;10.60;99.90;;;;;;5252750;28;20114;-74
2021/12/05 17:00:39;;;;;;;53.42;27.38;;;10.70;99.90;;;;;;5269574;28;20020;-74
2021/12/05 17:03:18;;;;;;;54.05;28.10;;;10.70;99.90;;;;;;5270648;28;20442;-74
2021/12/05 17:05:51;;;;;;;52.63;30.27;;;10.80;99.90;;;;;;5271073;28;20072;-75
2021/12/05 17:08:24;;;;;;;67.55;34.72;;;10.70;99.90;;;;;;5270446;28;20028;-75
2021/12/05 17:11:05;;;;;;;82.13;39.42;;;10.80;99.90;;;;;;5270522;28;20015;-74
2021/12/05 17:13:37;;;;;;;;;;;10.60;99.90;;;;;;5271252;28;20131;-73
2021/12/05 17:16:18;;;;;;;53.85;26.25;;;10.50;99.90;;;;;;5257322;28;20355;-74
2021/12/05 17:19:07;;;;;;;61.53;28.00;;;10.60;99.90;;;;;;5260624;28;20115;-74
2021/12/05 17:21:48;;;;;;;68.88;32.30;;;10.70;99.90;;;;;;5249320;28;20484;-74
2021/12/05 17:24:28;;;;;;;65.68;35.47;;;10.70;99.90;;;;;;5271214;28;20073;-75
2021/12/05 17:27:02;;;;;;;60.65;33.25;;;10.70;99.90;;;;;;5271020;28;20077;-74
2021/12/05 17:29:37;;;;;;;72.15;35.80;;;10.70;99.90;;;;;;5270932;28;20032;-74
2021/12/05 17:32:16;;;;;;;86.07;44.78;;;10.50;99.90;;;;;;5270804;28;20076;-74
2021/12/05 17:34:56;;;;;;;83.63;45.47;;;10.60;99.90;;;;;;5259136;28;20131;-75
2021/12/05 17:37:30;;;;;;;92.93;46.92;;;10.60;99.90;;;;;;5249524;28;20107;-75
2021/12/05 17:40:06;;;;;;;121.22;63.97;;;10.50;99.90;;;;;;5249332;28;20136;-74
2021/12/05 17:42:39;;;;;;;93.53;46.63;;;10.50;99.90;;;;;;5251835;28;20074;-74
2021/12/05 17:45:12;;;;;;;97.32;50.72;;;10.60;99.90;;;;;;5267068;28;20009;-75
2021/12/05 17:47:44;;;;;;;103.15;51.58;;;10.50;99.90;;;;;;5270303;28;20085;-74
2021/12/05 17:50:20;;;;;;;107.88;58.05;;;10.60;99.90;;;;;;5269846;28;20028;-74
2021/12/05 17:52:51;;;;;;;89.57;46.33;;;10.70;99.90;;;;;;5251811;28;20055;-75
2021/12/05 17:55:28;;;;;;;67.47;35.40;;;10.50;99.90;;;;;;5269934;28;20127;-75
2021/12/05 17:58:08;;;;;;;76.30;42.15;;;10.60;99.90;;;;;;5269893;28;20042;-73
2021/12/05 18:00:56;;;;;;;71.72;38.80;;;10.70;99.90;;;;;;5259930;28;20052;-74
2021/12/05 18:03:27;;;;;;;69.88;36.28;;;10.60;99.90;;;;;;5227327;28;20056;-74
2021/12/05 18:05:58;;;;;;;61.63;34.85;;;10.50;99.90;;;;;;5227185;28;20120;-75
2021/12/05 18:08:28;;;;;;;82.50;41.72;;;10.60;99.90;;;;;;5237646;28;20028;-74
2021/12/05 18:11:03;;;;;;;87.07;44.60;;;10.60;99.90;;;;;;5246783;28;20521;-75
2021/12/05 18:13:36;;;;;;;71.78;39.38;;;10.50;99.90;;;;;;5246885;28;20033;-75
2021/12/05 18:16:14;;;;;;;78.22;39.90;;;10.50;99.90;;;;;;5246803;28;20850;-74
2021/12/05 18:18:45;;;;;;;70.55;37.50;;;10.50;99.90;;;;;;5247434;28;20063;-74
2021/12/05 18:21:18;;;;;;;71.95;38.20;;;10.50;99.90;;;;;;5247155;28;20059;-74
2021/12/05 18:23:50;;;;;;;76.70;44.10;;;10.50;99.90;;;;;;5246512;28;20060;-74
2021/12/05 18:26:21;;;;;;;66.18;31.80;;;10.50;99.90;;;;;;5238665;28;20020;-74
2021/12/05 18:28:52;;;;;;;75.55;37.85;;;10.40;99.90;;;;;;5235866;28;20044;-74
2021/12/05 18:31:26;;;;;;;63.22;35.72;;;10.50;99.90;;;;;;5236494;28;20033;-74
2021/12/05 18:34:06;;;;;;;73.05;36.75;;;10.40;99.90;;;;;;5236930;28;20121;-73
2021/12/05 18:36:39;;;;;;;71.30;35.67;;;10.40;99.90;;;;;;5236918;28;20426;-73
2021/12/05 18:39:14;;;;;;;72.03;36.55;;;10.40;99.90;;;;;;5236719;28;20420;-73
2021/12/05 18:41:45;;;;;;;80.55;37.58;;;10.30;99.90;;;;;;5235926;28;20025;-74
2021/12/05 18:44:20;;;;;;;77.00;39.42;;;10.20;99.90;;;;;;5235177;28;20472;-73
2021/12/05 18:46:54;;;;;;;76.32;38.95;;;10.30;99.90;;;;;;5234190;28;20427;-74